createdAt,value
2017-08-16T00:00:20.202Z,1011.77
2017-08-16T00:01:08.201Z,1011.82
2017-08-16T00:02:02.262Z,1011.80
2017-08-16T00:03:02.309Z,1011.85
2017-08-16T00:03:51.322Z,1011.80
2017-08-16T00:04:39.421Z,1011.80
2017-08-16T00:05:27.397Z,1011.84
2017-08-16T00:06:21.554Z,1011.84
2017-08-16T00:07:27.436Z,1011.83
2017-08-16T00:08:27.529Z,1011.86
2017-08-16T00:09:21.571Z,1011.88
2017-08-16T00:10:21.671Z,1011.87
2017-08-16T00:11:16.697Z,1011.89
2017-08-16T00:12:11.590Z,1011.93
2017-08-16T00:13:05.716Z,1011.95
2017-08-16T00:13:53.700Z,1011.96
2017-08-16T00:14:41.506Z,1011.93
2017-08-16T00:15:30.892Z,1011.91
2017-08-16T00:16:25.823Z,1011.91
2017-08-16T00:17:19.898Z,1011.90
2017-08-16T00:18:14.681Z,1011.91
2017-08-16T00:19:04.047Z,1011.93
2017-08-16T00:19:51.856Z,1011.94
2017-08-16T00:20:46.134Z,1011.95
2017-08-16T00:21:40.012Z,1011.90
2017-08-16T00:22:28.059Z,1011.98
2017-08-16T00:23:17.151Z,1011.98
2017-08-16T00:24:06.086Z,1012.01
2017-08-16T00:24:55.380Z,1011.99
2017-08-16T00:25:55.464Z,1012.05
2017-08-16T00:26:49.056Z,1012.00
2017-08-16T00:27:37.344Z,1012.00
2017-08-16T00:28:37.438Z,1012.07
2017-08-16T00:29:37.560Z,1012.11
2017-08-16T00:30:31.697Z,1012.15
2017-08-16T00:31:31.557Z,1012.16
2017-08-16T00:32:25.570Z,1012.15
2017-08-16T00:33:26.579Z,1012.18
2017-08-16T00:34:26.567Z,1012.13
2017-08-16T00:35:15.734Z,1012.12
2017-08-16T00:36:04.877Z,1012.08
2017-08-16T00:36:59.791Z,1012.04
2017-08-16T00:37:53.890Z,1012.08
2017-08-16T00:38:47.937Z,1012.09
2017-08-16T00:39:42.983Z,1012.12
2017-08-16T00:40:37.046Z,1012.17
2017-08-16T00:41:37.100Z,1012.14
2017-08-16T00:42:31.056Z,1012.10
2017-08-16T00:43:20.133Z,1012.14
2017-08-16T00:44:15.155Z,1012.12
2017-08-16T00:45:09.169Z,1012.13
2017-08-16T00:46:09.244Z,1012.15
2017-08-16T00:47:04.232Z,1012.14
2017-08-16T00:47:59.347Z,1012.12
2017-08-16T00:48:59.301Z,1012.17
2017-08-16T00:49:54.440Z,1012.16
2017-08-16T00:50:49.499Z,1012.22
2017-08-16T00:51:49.586Z,1012.20
2017-08-16T00:52:44.590Z,1012.22
2017-08-16T00:53:39.624Z,1012.21
2017-08-16T00:54:39.593Z,1012.23
2017-08-16T00:55:33.610Z,1012.23
2017-08-16T00:56:28.683Z,1012.23
2017-08-16T00:57:23.718Z,1012.22
2017-08-16T00:58:18.580Z,1012.25
2017-08-16T00:59:06.785Z,1012.22
2017-08-16T01:00:00.898Z,1012.23
2017-08-16T01:00:54.867Z,1012.25
2017-08-16T01:01:49.978Z,1012.25
2017-08-16T01:02:43.736Z,1012.21
2017-08-16T01:03:37.952Z,1012.27
2017-08-16T01:04:26.079Z,1012.27
2017-08-16T01:05:20.110Z,1012.26
2017-08-16T01:06:15.246Z,1012.27
2017-08-16T01:07:09.159Z,1012.32
2017-08-16T01:08:09.103Z,1012.34
2017-08-16T01:09:03.121Z,1012.36
2017-08-16T01:09:52.240Z,1012.41
2017-08-16T01:10:47.310Z,1012.42
2017-08-16T01:11:40.996Z,1012.45
2017-08-16T01:12:41.307Z,1012.48
2017-08-16T01:13:30.246Z,1012.49
2017-08-16T01:14:19.458Z,1012.52
2017-08-16T01:15:08.570Z,1012.52
2017-08-16T01:15:57.700Z,1012.51
2017-08-16T01:16:45.570Z,1012.52
2017-08-16T01:17:34.727Z,1012.53
2017-08-16T01:18:29.602Z,1012.53
2017-08-16T01:19:29.694Z,1012.59
2017-08-16T01:20:24.714Z,1012.63
2017-08-16T01:21:19.833Z,1012.64
2017-08-16T01:22:19.891Z,1012.64
2017-08-16T01:23:14.877Z,1012.61
2017-08-16T01:24:08.944Z,1012.66
2017-08-16T01:25:02.971Z,1012.64
2017-08-16T01:26:03.141Z,1012.64
2017-08-16T01:26:52.022Z,1012.64
2017-08-16T01:27:41.147Z,1012.61
2017-08-16T01:28:35.098Z,1012.63
2017-08-16T01:29:30.177Z,1012.66
2017-08-16T01:30:24.378Z,1012.65
2017-08-16T01:31:12.254Z,1012.65
2017-08-16T01:32:00.258Z,1012.64
2017-08-16T01:33:01.426Z,1012.59
2017-08-16T01:33:56.428Z,1012.63
2017-08-16T01:34:50.416Z,1012.63
2017-08-16T01:35:39.475Z,1012.62
2017-08-16T01:36:33.508Z,1012.61
2017-08-16T01:37:28.646Z,1012.65
2017-08-16T01:38:28.639Z,1012.62
2017-08-16T01:39:23.614Z,1012.64
2017-08-16T01:40:17.707Z,1012.66
2017-08-16T01:41:06.691Z,1012.70
2017-08-16T01:41:54.703Z,1012.74
2017-08-16T01:42:42.849Z,1012.71
2017-08-16T01:43:36.895Z,1012.77
2017-08-16T01:44:37.892Z,1012.75
2017-08-16T01:45:38.951Z,1012.76
2017-08-16T01:46:27.953Z,1012.77
2017-08-16T01:47:16.035Z,1012.73
2017-08-16T01:48:04.145Z,1012.76
2017-08-16T01:48:52.033Z,1012.78
2017-08-16T01:49:40.129Z,1012.79
2017-08-16T01:50:34.156Z,1012.78
2017-08-16T01:51:23.239Z,1012.77
2017-08-16T01:52:11.299Z,1012.78
2017-08-16T01:52:59.390Z,1012.76
2017-08-16T01:53:48.338Z,1012.77
2017-08-16T01:54:36.541Z,1012.80
2017-08-16T01:55:24.537Z,1012.76
2017-08-16T01:56:12.567Z,1012.76
2017-08-16T01:57:07.586Z,1012.79
2017-08-16T01:58:07.615Z,1012.78
2017-08-16T01:58:55.626Z,1012.83
2017-08-16T01:59:50.702Z,1012.83
2017-08-16T02:00:50.762Z,1012.80
2017-08-16T02:01:38.733Z,1012.83
2017-08-16T02:02:27.746Z,1012.84
2017-08-16T02:03:15.817Z,1012.82
2017-08-16T02:04:04.853Z,1012.84
2017-08-16T02:04:58.926Z,1012.80
2017-08-16T02:05:52.993Z,1012.79
2017-08-16T02:06:42.057Z,1012.82
2017-08-16T02:07:30.062Z,1012.83
2017-08-16T02:08:24.053Z,1012.83
2017-08-16T02:09:12.177Z,1012.85
2017-08-16T02:10:01.218Z,1012.89
2017-08-16T02:10:49.246Z,1012.83
2017-08-16T02:11:37.304Z,1012.83
2017-08-16T02:12:26.359Z,1012.86
2017-08-16T02:13:14.411Z,1012.90
2017-08-16T02:14:08.405Z,1012.88
2017-08-16T02:15:02.363Z,1012.88
2017-08-16T02:15:50.382Z,1012.91
2017-08-16T02:16:38.507Z,1012.88
2017-08-16T02:17:26.544Z,1012.91
2017-08-16T02:18:14.599Z,1012.91
2017-08-16T02:19:03.679Z,1012.88
2017-08-16T02:19:52.750Z,1012.91
2017-08-16T02:20:40.886Z,1012.89
2017-08-16T02:21:28.811Z,1012.88
2017-08-16T02:22:16.842Z,1012.93
2017-08-16T02:23:05.875Z,1012.89
2017-08-16T02:23:54.009Z,1012.92
2017-08-16T02:24:42.008Z,1012.96
2017-08-16T02:25:31.049Z,1012.91
2017-08-16T02:26:19.235Z,1012.90
2017-08-16T02:27:07.226Z,1012.92
2017-08-16T02:27:56.137Z,1012.92
2017-08-16T02:28:44.108Z,1012.89
2017-08-16T02:29:32.301Z,1012.92
2017-08-16T02:30:26.370Z,1012.87
2017-08-16T02:31:15.473Z,1012.90
2017-08-16T02:32:03.440Z,1012.91
2017-08-16T02:32:51.526Z,1012.89
2017-08-16T02:33:39.573Z,1012.91
2017-08-16T02:34:28.658Z,1012.94
2017-08-16T02:35:16.739Z,1012.94
2017-08-16T02:36:04.737Z,1012.96
2017-08-16T02:36:54.010Z,1012.97
2017-08-16T02:37:41.763Z,1012.99
2017-08-16T02:38:29.773Z,1012.97
2017-08-16T02:39:18.838Z,1013.01
2017-08-16T02:40:06.928Z,1013.02
2017-08-16T02:40:55.040Z,1013.02
2017-08-16T02:41:43.962Z,1013.00
2017-08-16T02:42:32.161Z,1013.03
2017-08-16T02:43:19.958Z,1013.05
2017-08-16T02:44:21.161Z,1012.95
2017-08-16T02:45:15.155Z,1012.99
2017-08-16T02:46:16.186Z,1013.00
2017-08-16T02:47:16.151Z,1012.99
2017-08-16T02:48:05.264Z,1013.00
2017-08-16T02:48:53.227Z,1012.99
2017-08-16T02:49:42.391Z,1013.00
2017-08-16T02:50:30.400Z,1013.03
2017-08-16T02:51:24.446Z,1013.02
2017-08-16T02:52:12.510Z,1013.06
2017-08-16T02:53:00.576Z,1013.07
2017-08-16T02:54:00.546Z,1013.05
2017-08-16T02:54:55.676Z,1013.12
2017-08-16T02:55:55.601Z,1013.10
2017-08-16T02:56:50.630Z,1013.10
2017-08-16T02:57:45.760Z,1013.11
2017-08-16T02:58:45.731Z,1013.11
2017-08-16T02:59:40.836Z,1013.09
2017-08-16T03:00:35.804Z,1013.12
2017-08-16T03:01:35.840Z,1013.11
2017-08-16T03:02:30.908Z,1013.05
2017-08-16T03:03:25.941Z,1013.09
2017-08-16T03:04:26.849Z,1013.12
2017-08-16T03:05:26.956Z,1013.08
2017-08-16T03:06:27.231Z,1013.05
2017-08-16T03:07:21.987Z,1013.02
2017-08-16T03:08:16.099Z,1013.05
2017-08-16T03:09:16.228Z,1013.11
2017-08-16T03:10:10.098Z,1013.07
2017-08-16T03:11:05.342Z,1013.10
2017-08-16T03:12:00.340Z,1013.10
2017-08-16T03:13:00.331Z,1013.11
2017-08-16T03:13:48.379Z,1013.12
2017-08-16T03:14:37.409Z,1013.12
2017-08-16T03:15:31.411Z,1013.10
2017-08-16T03:16:25.556Z,1013.12
2017-08-16T03:17:13.551Z,1013.10
2017-08-16T03:18:07.605Z,1013.11
2017-08-16T03:18:56.648Z,1013.12
2017-08-16T03:19:45.609Z,1013.10
2017-08-16T03:20:33.667Z,1013.15
2017-08-16T03:21:21.798Z,1013.16
2017-08-16T03:22:09.666Z,1013.14
2017-08-16T03:23:03.790Z,1013.15
2017-08-16T03:23:57.823Z,1013.19
2017-08-16T03:24:46.774Z,1013.16
2017-08-16T03:25:35.587Z,1013.23
2017-08-16T03:26:24.974Z,1013.24
2017-08-16T03:27:13.027Z,1013.25
2017-08-16T03:28:01.081Z,1013.21
2017-08-16T03:28:49.236Z,1013.22
2017-08-16T03:29:38.158Z,1013.25
2017-08-16T03:30:26.214Z,1013.25
2017-08-16T03:31:15.194Z,1013.31
2017-08-16T03:32:04.248Z,1013.29
2017-08-16T03:32:58.987Z,1013.31
2017-08-16T03:33:54.197Z,1013.33
2017-08-16T03:34:42.326Z,1013.34
2017-08-16T03:35:30.143Z,1013.34
2017-08-16T03:36:19.450Z,1013.34
2017-08-16T03:37:07.387Z,1013.34
2017-08-16T03:37:55.510Z,1013.35
2017-08-16T03:38:44.543Z,1013.36
2017-08-16T03:39:32.328Z,1013.34
2017-08-16T03:40:20.410Z,1013.35
2017-08-16T03:41:15.473Z,1013.37
2017-08-16T03:42:10.417Z,1013.40
2017-08-16T03:43:04.479Z,1013.39
2017-08-16T03:43:58.528Z,1013.39
2017-08-16T03:44:52.718Z,1013.37
2017-08-16T03:45:40.863Z,1013.40
2017-08-16T03:46:29.661Z,1013.41
2017-08-16T03:47:17.719Z,1013.42
2017-08-16T03:48:05.673Z,1013.48
2017-08-16T03:48:54.857Z,1013.47
2017-08-16T03:49:43.897Z,1013.44
2017-08-16T03:50:44.356Z,1013.45
2017-08-16T03:51:37.881Z,1013.45
2017-08-16T03:52:38.918Z,1013.48
2017-08-16T03:53:39.360Z,1013.49
2017-08-16T03:54:34.021Z,1013.50
2017-08-16T03:55:34.102Z,1013.47
2017-08-16T03:56:22.032Z,1013.50
2017-08-16T03:57:11.544Z,1013.48
2017-08-16T03:58:12.393Z,1013.47
2017-08-16T03:59:06.174Z,1013.51
2017-08-16T04:00:00.210Z,1013.53
2017-08-16T04:00:55.278Z,1013.53
2017-08-16T04:01:49.328Z,1013.56
2017-08-16T04:02:43.353Z,1013.58
2017-08-16T04:03:38.314Z,1013.57
2017-08-16T04:04:32.469Z,1013.59
2017-08-16T04:05:32.489Z,1013.58
2017-08-16T04:06:22.005Z,1013.62
2017-08-16T04:07:10.479Z,1013.64
2017-08-16T04:08:11.985Z,1013.61
2017-08-16T04:09:11.790Z,1013.63
2017-08-16T04:10:11.623Z,1013.61
2017-08-16T04:11:11.672Z,1013.62
2017-08-16T04:12:11.870Z,1013.64
2017-08-16T04:13:05.785Z,1013.63
2017-08-16T04:13:54.814Z,1013.60
2017-08-16T04:14:49.891Z,1013.65
2017-08-16T04:15:37.880Z,1013.68
2017-08-16T04:16:31.938Z,1013.65
2017-08-16T04:17:26.120Z,1013.69
2017-08-16T04:18:26.079Z,1013.70
2017-08-16T04:19:26.091Z,1013.71
2017-08-16T04:20:26.070Z,1013.70
2017-08-16T04:21:26.118Z,1013.71
2017-08-16T04:22:27.359Z,1013.72
2017-08-16T04:23:22.198Z,1013.79
2017-08-16T04:24:16.266Z,1013.80
2017-08-16T04:25:16.333Z,1013.84
2017-08-16T04:26:11.570Z,1013.82
2017-08-16T04:27:06.308Z,1013.86
2017-08-16T04:28:00.465Z,1013.85
2017-08-16T04:28:54.444Z,1013.89
2017-08-16T04:29:49.561Z,1013.88
2017-08-16T04:30:38.601Z,1013.95
2017-08-16T04:31:38.989Z,1013.94
2017-08-16T04:32:38.695Z,1013.93
2017-08-16T04:33:39.088Z,1013.93
2017-08-16T04:34:38.699Z,1013.97
2017-08-16T04:35:33.686Z,1013.96
2017-08-16T04:36:33.770Z,1014.03
2017-08-16T04:37:28.951Z,1014.02
2017-08-16T04:38:23.883Z,1014.05
2017-08-16T04:39:23.864Z,1014.11
2017-08-16T04:40:18.815Z,1014.08
2017-08-16T04:41:12.963Z,1014.13
2017-08-16T04:42:07.963Z,1014.09
2017-08-16T04:42:56.135Z,1014.07
2017-08-16T04:43:50.399Z,1014.06
2017-08-16T04:44:50.140Z,1014.07
2017-08-16T04:45:45.660Z,1014.14
2017-08-16T04:46:39.140Z,1014.16
2017-08-16T04:47:28.227Z,1014.16
2017-08-16T04:48:17.241Z,1014.18
2017-08-16T04:49:05.384Z,1014.21
2017-08-16T04:49:53.520Z,1014.21
2017-08-16T04:50:41.380Z,1014.20
2017-08-16T04:51:35.390Z,1014.25
2017-08-16T04:52:24.476Z,1014.28
2017-08-16T04:53:12.932Z,1014.28
2017-08-16T04:54:01.986Z,1014.30
2017-08-16T04:54:49.679Z,1014.35
2017-08-16T04:55:37.782Z,1014.34
2017-08-16T04:56:27.083Z,1014.33
2017-08-16T04:57:15.024Z,1014.33
2017-08-16T04:58:02.877Z,1014.37
2017-08-16T04:58:56.993Z,1014.39
2017-08-16T04:59:57.261Z,1014.36
2017-08-16T05:00:50.904Z,1014.39
2017-08-16T05:01:44.962Z,1014.36
2017-08-16T05:02:38.940Z,1014.39
2017-08-16T05:03:27.031Z,1014.37
2017-08-16T05:04:21.021Z,1014.37
2017-08-16T05:05:21.168Z,1014.39
2017-08-16T05:06:16.530Z,1014.39
2017-08-16T05:07:10.519Z,1014.45
2017-08-16T05:08:10.653Z,1014.42
2017-08-16T05:09:05.635Z,1014.46
2017-08-16T05:10:05.804Z,1014.45
2017-08-16T05:11:05.746Z,1014.43
2017-08-16T05:12:05.806Z,1014.47
2017-08-16T05:12:59.696Z,1014.47
2017-08-16T05:13:59.804Z,1014.49
2017-08-16T05:14:48.968Z,1014.52
2017-08-16T05:15:42.954Z,1014.55
2017-08-16T05:16:36.568Z,1014.54
2017-08-16T05:17:31.102Z,1014.56
2017-08-16T05:18:24.668Z,1014.55
2017-08-16T05:19:19.798Z,1014.55
2017-08-16T05:20:13.816Z,1014.56
2017-08-16T05:21:08.134Z,1014.55
2017-08-16T05:22:03.054Z,1014.56
2017-08-16T05:22:52.032Z,1014.57
2017-08-16T05:23:45.988Z,1014.56
2017-08-16T05:24:34.079Z,1014.57
2017-08-16T05:25:29.397Z,1014.58
2017-08-16T05:26:29.264Z,1014.55
2017-08-16T05:27:29.057Z,1014.58
2017-08-16T05:28:29.357Z,1014.58
2017-08-16T05:29:29.239Z,1014.60
2017-08-16T05:30:29.433Z,1014.64
2017-08-16T05:31:24.606Z,1014.61
2017-08-16T05:32:13.692Z,1014.61
2017-08-16T05:33:13.762Z,1014.62
2017-08-16T05:34:07.789Z,1014.63
2017-08-16T05:35:07.835Z,1014.68
2017-08-16T05:36:01.847Z,1014.67
2017-08-16T05:36:49.965Z,1014.70
2017-08-16T05:37:49.959Z,1014.69
2017-08-16T05:38:49.907Z,1014.70
2017-08-16T05:39:44.000Z,1014.70
2017-08-16T05:40:33.042Z,1014.74
2017-08-16T05:41:27.054Z,1014.73
2017-08-16T05:42:16.041Z,1014.77
2017-08-16T05:43:16.177Z,1014.82
2017-08-16T05:44:22.258Z,1014.83
2017-08-16T05:45:17.316Z,1014.85
2017-08-16T05:46:11.330Z,1014.84
2017-08-16T05:47:11.358Z,1014.91
2017-08-16T05:48:05.525Z,1014.91
2017-08-16T05:49:06.427Z,1014.85
2017-08-16T05:50:07.439Z,1014.85
2017-08-16T05:51:01.480Z,1014.87
2017-08-16T05:51:49.515Z,1014.84
2017-08-16T05:52:43.653Z,1014.82
2017-08-16T05:53:37.599Z,1014.85
2017-08-16T05:54:26.769Z,1014.85
2017-08-16T05:55:26.740Z,1014.87
2017-08-16T05:56:15.915Z,1014.89
2017-08-16T05:57:09.827Z,1014.90
2017-08-16T05:58:09.801Z,1014.92
2017-08-16T05:58:57.999Z,1014.91
2017-08-16T05:59:46.915Z,1014.93
2017-08-16T06:00:35.055Z,1014.96
2017-08-16T06:01:24.105Z,1014.93
2017-08-16T06:02:24.129Z,1014.96
2017-08-16T06:03:25.355Z,1014.93
2017-08-16T06:04:19.386Z,1014.94
2017-08-16T06:05:08.300Z,1014.98
2017-08-16T06:06:03.304Z,1014.94
2017-08-16T06:06:57.412Z,1014.99
2017-08-16T06:07:51.522Z,1014.99
2017-08-16T06:08:45.459Z,1014.99
2017-08-16T06:09:33.525Z,1014.95
2017-08-16T06:10:28.576Z,1015.00
2017-08-16T06:11:17.633Z,1015.02
2017-08-16T06:12:12.714Z,1014.99
2017-08-16T06:13:00.663Z,1015.00
2017-08-16T06:13:49.713Z,1014.99
2017-08-16T06:14:44.844Z,1014.99
2017-08-16T06:15:32.894Z,1014.99
2017-08-16T06:16:21.974Z,1014.98
2017-08-16T06:17:22.194Z,1015.02
2017-08-16T06:18:17.097Z,1014.97
2017-08-16T06:19:11.107Z,1014.97
2017-08-16T06:19:59.166Z,1014.99
2017-08-16T06:20:53.184Z,1015.03
2017-08-16T06:21:42.170Z,1015.04
2017-08-16T06:22:36.248Z,1015.02
2017-08-16T06:23:30.393Z,1015.03
2017-08-16T06:24:19.310Z,1015.06
2017-08-16T06:25:07.408Z,1015.08
2017-08-16T06:26:02.493Z,1015.08
2017-08-16T06:26:57.532Z,1015.09
2017-08-16T06:27:51.479Z,1015.12
2017-08-16T06:28:45.565Z,1015.14
2017-08-16T06:29:40.723Z,1015.22
2017-08-16T06:30:34.736Z,1015.14
2017-08-16T06:31:22.800Z,1015.17
2017-08-16T06:32:17.851Z,1015.13
2017-08-16T06:33:19.165Z,1015.16
2017-08-16T06:34:14.022Z,1015.18
2017-08-16T06:35:07.990Z,1015.22
2017-08-16T06:36:09.060Z,1015.16
2017-08-16T06:37:04.063Z,1015.18
2017-08-16T06:38:04.178Z,1015.16
2017-08-16T06:38:53.173Z,1015.16
2017-08-16T06:39:53.122Z,1015.17
2017-08-16T06:40:42.189Z,1015.18
2017-08-16T06:41:37.365Z,1015.19
2017-08-16T06:42:25.402Z,1015.23
2017-08-16T06:43:25.525Z,1015.23
2017-08-16T06:44:19.516Z,1015.27
2017-08-16T06:45:13.393Z,1015.26
2017-08-16T06:46:02.622Z,1015.23
2017-08-16T06:46:56.580Z,1015.17
2017-08-16T06:47:57.642Z,1015.21
2017-08-16T06:48:51.676Z,1015.24
2017-08-16T06:49:51.835Z,1015.22
2017-08-16T06:50:39.873Z,1015.23
2017-08-16T06:51:28.890Z,1015.27
2017-08-16T06:52:16.973Z,1015.26
2017-08-16T06:53:05.964Z,1015.27
2017-08-16T06:54:01.148Z,1015.26
2017-08-16T06:54:49.208Z,1015.29
2017-08-16T06:55:49.319Z,1015.29
2017-08-16T06:56:43.147Z,1015.32
2017-08-16T06:57:32.313Z,1015.32
2017-08-16T06:58:20.293Z,1015.33
2017-08-16T06:59:15.344Z,1015.35
2017-08-16T07:00:09.490Z,1015.28
2017-08-16T07:00:58.615Z,1015.32
2017-08-16T07:01:52.634Z,1015.35
2017-08-16T07:02:46.571Z,1015.34
2017-08-16T07:03:40.760Z,1015.36
2017-08-16T07:04:40.700Z,1015.36
2017-08-16T07:05:40.854Z,1015.43
2017-08-16T07:06:35.869Z,1015.41
2017-08-16T07:07:29.888Z,1015.44
2017-08-16T07:08:24.944Z,1015.42
2017-08-16T07:09:18.968Z,1015.34
2017-08-16T07:10:08.035Z,1015.43
2017-08-16T07:11:03.064Z,1015.43
2017-08-16T07:11:52.259Z,1015.43
2017-08-16T07:12:47.172Z,1015.46
2017-08-16T07:13:41.272Z,1015.44
2017-08-16T07:14:41.292Z,1015.46
2017-08-16T07:15:30.336Z,1015.44
2017-08-16T07:16:25.474Z,1015.42
2017-08-16T07:17:19.427Z,1015.32
2017-08-16T07:18:13.738Z,1015.35
2017-08-16T07:19:08.583Z,1015.33
2017-08-16T07:20:08.673Z,1015.40
2017-08-16T07:20:57.702Z,1015.43
2017-08-16T07:21:46.775Z,1015.41
2017-08-16T07:22:40.861Z,1015.41
2017-08-16T07:23:35.841Z,1015.38
2017-08-16T07:24:25.005Z,1015.37
2017-08-16T07:25:14.055Z,1015.38
2017-08-16T07:26:03.121Z,1015.36
2017-08-16T07:26:57.245Z,1015.39
2017-08-16T07:27:46.202Z,1015.40
2017-08-16T07:28:46.260Z,1015.34
2017-08-16T07:29:40.251Z,1015.35
2017-08-16T07:30:34.372Z,1015.35
2017-08-16T07:31:29.491Z,1015.34
2017-08-16T07:32:23.532Z,1015.31
2017-08-16T07:33:23.482Z,1015.31
2017-08-16T07:34:12.559Z,1015.29
2017-08-16T07:35:06.622Z,1015.21
2017-08-16T07:36:01.772Z,1015.36
2017-08-16T07:36:49.766Z,1015.33
2017-08-16T07:37:43.893Z,1015.33
2017-08-16T07:38:38.927Z,1015.37
2017-08-16T07:39:33.030Z,1015.38
2017-08-16T07:40:22.041Z,1015.41
2017-08-16T07:41:16.001Z,1015.35
2017-08-16T07:42:16.107Z,1015.35
2017-08-16T07:43:16.210Z,1015.42
2017-08-16T07:44:05.200Z,1015.43
2017-08-16T07:44:59.207Z,1015.38
2017-08-16T07:45:53.386Z,1015.38
2017-08-16T07:46:47.427Z,1015.38
2017-08-16T07:47:41.383Z,1015.35
2017-08-16T07:48:36.568Z,1015.44
2017-08-16T07:49:24.653Z,1015.36
2017-08-16T07:50:19.647Z,1015.48
2017-08-16T07:51:19.610Z,1015.44
2017-08-16T07:52:13.728Z,1015.40
2017-08-16T07:53:08.812Z,1015.43
2017-08-16T07:54:03.901Z,1015.46
2017-08-16T07:54:58.966Z,1015.44
2017-08-16T07:55:53.979Z,1015.46
2017-08-16T07:56:43.031Z,1015.43
2017-08-16T07:57:32.034Z,1015.51
2017-08-16T07:58:20.111Z,1015.40
2017-08-16T07:59:20.205Z,1015.40
2017-08-16T08:00:14.260Z,1015.54
2017-08-16T08:01:14.357Z,1015.52
2017-08-16T08:02:02.388Z,1015.58
2017-08-16T08:02:51.392Z,1015.54
2017-08-16T08:03:46.444Z,1015.56
2017-08-16T08:04:46.532Z,1015.55
2017-08-16T08:05:40.662Z,1015.53
2017-08-16T08:06:40.586Z,1015.55
2017-08-16T08:07:29.702Z,1015.57
2017-08-16T08:08:24.757Z,1015.47
2017-08-16T08:09:24.763Z,1015.47
2017-08-16T08:10:19.776Z,1015.49
2017-08-16T08:11:13.935Z,1015.48
2017-08-16T08:12:07.978Z,1015.46
2017-08-16T08:12:56.910Z,1015.47
2017-08-16T08:13:51.010Z,1015.49
2017-08-16T08:14:40.106Z,1015.51
2017-08-16T08:15:34.161Z,1015.49
2017-08-16T08:16:29.219Z,1015.48
2017-08-16T08:17:18.239Z,1015.53
2017-08-16T08:18:12.371Z,1015.54
2017-08-16T08:19:12.364Z,1015.51
2017-08-16T08:20:07.444Z,1015.55
2017-08-16T08:21:07.526Z,1015.59
2017-08-16T08:22:02.722Z,1015.56
2017-08-16T08:22:57.664Z,1015.57
2017-08-16T08:23:46.692Z,1015.58
2017-08-16T08:24:46.844Z,1015.62
2017-08-16T08:25:40.817Z,1015.61
2017-08-16T08:26:40.901Z,1015.57
2017-08-16T08:27:29.945Z,1015.61
2017-08-16T08:28:24.049Z,1015.61
2017-08-16T08:29:24.038Z,1015.62
2017-08-16T08:30:18.189Z,1015.63
2017-08-16T08:31:07.261Z,1015.60
2017-08-16T08:31:56.254Z,1015.67
2017-08-16T08:32:51.421Z,1015.69
2017-08-16T08:33:51.385Z,1015.68
2017-08-16T08:34:40.334Z,1015.70
2017-08-16T08:35:29.486Z,1015.68
2017-08-16T08:36:23.456Z,1015.67
2017-08-16T08:37:17.518Z,1015.72
2017-08-16T08:38:06.576Z,1015.71
2017-08-16T08:38:54.793Z,1015.74
2017-08-16T08:39:54.858Z,1015.73
2017-08-16T08:40:42.942Z,1015.71
2017-08-16T08:41:36.914Z,1015.68
2017-08-16T08:42:30.955Z,1015.67
2017-08-16T08:43:26.059Z,1015.69
2017-08-16T08:44:26.087Z,1015.71
2017-08-16T08:45:20.160Z,1015.68
2017-08-16T08:46:09.325Z,1015.72
2017-08-16T08:47:04.364Z,1015.67
2017-08-16T08:47:52.422Z,1015.72
2017-08-16T08:48:41.472Z,1015.71
2017-08-16T08:49:36.543Z,1015.73
2017-08-16T08:50:31.640Z,1015.74
2017-08-16T08:51:25.586Z,1015.79
2017-08-16T08:52:19.667Z,1015.73
2017-08-16T08:53:13.666Z,1015.74
2017-08-16T08:54:02.799Z,1015.76
2017-08-16T08:54:56.869Z,1015.73
2017-08-16T08:55:50.950Z,1015.76
2017-08-16T08:56:39.921Z,1015.76
2017-08-16T08:57:34.088Z,1015.76
2017-08-16T08:58:29.080Z,1015.77
2017-08-16T08:59:18.196Z,1015.71
2017-08-16T09:00:12.256Z,1015.77
2017-08-16T09:01:06.290Z,1015.77
2017-08-16T09:02:01.413Z,1015.78
2017-08-16T09:03:02.401Z,1015.81
2017-08-16T09:03:51.496Z,1015.82
2017-08-16T09:04:51.633Z,1015.81
2017-08-16T09:05:51.696Z,1015.78
2017-08-16T09:06:46.749Z,1015.78
2017-08-16T09:07:40.796Z,1015.74
2017-08-16T09:08:29.755Z,1015.71
2017-08-16T09:09:24.859Z,1015.75
2017-08-16T09:10:20.136Z,1015.77
2017-08-16T09:11:08.051Z,1015.76
2017-08-16T09:12:08.115Z,1015.78
2017-08-16T09:13:02.116Z,1015.79
2017-08-16T09:13:51.239Z,1015.83
2017-08-16T09:14:51.264Z,1015.78
2017-08-16T09:15:45.474Z,1015.78
2017-08-16T09:16:39.422Z,1015.77
2017-08-16T09:17:33.601Z,1015.76
2017-08-16T09:18:27.555Z,1015.75
2017-08-16T09:19:16.676Z,1015.83
2017-08-16T09:20:10.720Z,1015.80
2017-08-16T09:21:11.809Z,1015.79
2017-08-16T09:22:06.927Z,1015.78
2017-08-16T09:22:55.860Z,1015.78
2017-08-16T09:23:49.967Z,1015.74
2017-08-16T09:24:39.077Z,1015.77
2017-08-16T09:25:33.130Z,1015.78
2017-08-16T09:26:27.282Z,1015.79
2017-08-16T09:27:21.263Z,1015.75
2017-08-16T09:28:15.284Z,1015.77
2017-08-16T09:29:15.416Z,1015.82
2017-08-16T09:30:09.454Z,1015.77
2017-08-16T09:31:04.499Z,1015.77
2017-08-16T09:32:04.578Z,1015.83
2017-08-16T09:32:59.607Z,1015.81
2017-08-16T09:33:47.684Z,1015.84
2017-08-16T09:34:42.683Z,1015.81
2017-08-16T09:35:36.750Z,1015.86
2017-08-16T09:36:30.865Z,1015.88
2017-08-16T09:37:20.008Z,1015.81
2017-08-16T09:38:13.983Z,1015.78
2017-08-16T09:39:08.080Z,1015.78
2017-08-16T09:40:03.073Z,1015.76
2017-08-16T09:40:58.294Z,1015.77
2017-08-16T09:41:47.230Z,1015.79
2017-08-16T09:42:41.313Z,1015.80
2017-08-16T09:43:29.294Z,1015.76
2017-08-16T09:44:23.439Z,1015.80
2017-08-16T09:45:17.503Z,1015.78
2017-08-16T09:46:06.598Z,1015.76
2017-08-16T09:47:01.584Z,1015.80
2017-08-16T09:47:55.728Z,1015.79
2017-08-16T09:48:50.787Z,1015.79
2017-08-16T09:49:44.784Z,1015.75
2017-08-16T09:50:39.827Z,1015.77
2017-08-16T09:51:28.884Z,1015.77
2017-08-16T09:52:18.004Z,1015.74
2017-08-16T09:53:13.055Z,1015.78
2017-08-16T09:54:07.099Z,1015.77
2017-08-16T09:55:07.122Z,1015.76
2017-08-16T09:56:01.264Z,1015.79
2017-08-16T09:56:56.297Z,1015.82
2017-08-16T09:57:50.433Z,1015.80
2017-08-16T09:58:44.579Z,1015.78
2017-08-16T09:59:44.494Z,1015.83
2017-08-16T10:00:32.505Z,1015.76
2017-08-16T10:01:26.582Z,1015.75
2017-08-16T10:02:21.684Z,1015.75
2017-08-16T10:03:10.688Z,1015.73
2017-08-16T10:04:04.756Z,1015.74
2017-08-16T10:04:58.881Z,1015.77
2017-08-16T10:05:47.911Z,1015.72
2017-08-16T10:06:37.027Z,1015.71
2017-08-16T10:07:26.101Z,1015.74
2017-08-16T10:08:15.274Z,1015.69
2017-08-16T10:09:09.229Z,1015.67
2017-08-16T10:10:03.279Z,1015.63
2017-08-16T10:10:51.501Z,1015.65
2017-08-16T10:11:45.360Z,1015.58
2017-08-16T10:12:45.374Z,1015.59
2017-08-16T10:13:45.477Z,1015.61
2017-08-16T10:14:33.643Z,1015.65
2017-08-16T10:15:27.692Z,1015.65
2017-08-16T10:16:22.690Z,1015.67
2017-08-16T10:17:22.883Z,1015.62
2017-08-16T10:18:16.949Z,1015.60
2017-08-16T10:19:11.900Z,1015.60
2017-08-16T10:20:11.950Z,1015.58
2017-08-16T10:21:06.993Z,1015.60
2017-08-16T10:21:56.050Z,1015.55
2017-08-16T10:22:56.067Z,1015.58
2017-08-16T10:23:50.267Z,1015.60
2017-08-16T10:24:44.326Z,1015.62
2017-08-16T10:25:38.399Z,1015.60
2017-08-16T10:26:32.464Z,1015.63
2017-08-16T10:27:27.411Z,1015.59
2017-08-16T10:28:22.483Z,1015.61
2017-08-16T10:29:11.569Z,1015.63
2017-08-16T10:30:06.726Z,1015.58
2017-08-16T10:30:56.026Z,1015.63
2017-08-16T10:31:55.781Z,1015.60
2017-08-16T10:32:44.875Z,1015.62
2017-08-16T10:33:32.922Z,1015.62
2017-08-16T10:34:39.939Z,1015.59
2017-08-16T10:35:40.090Z,1015.56
2017-08-16T10:36:35.169Z,1015.55
2017-08-16T10:37:29.232Z,1015.60
2017-08-16T10:38:24.300Z,1015.60
2017-08-16T10:39:18.233Z,1015.58
2017-08-16T10:40:12.375Z,1015.54
2017-08-16T10:41:06.460Z,1015.50
2017-08-16T10:41:54.490Z,1015.52
2017-08-16T10:42:42.456Z,1015.59
2017-08-16T10:43:36.689Z,1015.59
2017-08-16T10:44:31.655Z,1015.58
2017-08-16T10:45:31.694Z,1015.54
2017-08-16T10:46:26.868Z,1015.57